createdAt,value
2018-12-07T00:01:48.070Z,24.50
2018-12-07T00:04:16.488Z,27.37
2018-12-07T00:06:44.966Z,25.93
2018-12-07T00:09:14.045Z,24.57
2018-12-07T00:11:42.496Z,26.77
2018-12-07T00:14:10.980Z,26.43
2018-12-07T00:16:39.453Z,23.77
2018-12-07T00:19:07.923Z,28.57
2018-12-07T00:21:36.367Z,24.73
2018-12-07T00:24:05.011Z,27.43
2018-12-07T00:26:33.606Z,23.23
2018-12-07T00:29:02.052Z,23.37
2018-12-07T00:31:31.600Z,25.40
2018-12-07T00:34:00.177Z,25.40
2018-12-07T00:36:28.607Z,22.13
2018-12-07T00:38:57.120Z,21.37
2018-12-07T00:41:25.592Z,24.23
2018-12-07T00:43:54.048Z,22.70
2018-12-07T00:46:22.514Z,21.73
2018-12-07T00:48:50.992Z,21.23
2018-12-07T00:51:19.457Z,23.93
2018-12-07T00:53:47.873Z,24.77
2018-12-07T00:56:16.356Z,24.23
2018-12-07T00:58:44.811Z,24.13
2018-12-07T01:01:13.329Z,25.07
2018-12-07T01:03:41.773Z,28.87
2018-12-07T01:06:10.362Z,24.07
2018-12-07T01:08:38.811Z,25.97
2018-12-07T01:11:07.523Z,22.00
2018-12-07T01:13:35.992Z,22.17
2018-12-07T01:16:04.491Z,21.87
2018-12-07T01:18:32.919Z,22.23
2018-12-07T01:21:01.471Z,21.03
2018-12-07T01:23:29.887Z,22.53
2018-12-07T01:25:58.319Z,21.47
2018-12-07T01:28:26.784Z,22.77
2018-12-07T01:30:55.272Z,25.07
2018-12-07T01:33:23.724Z,26.27
2018-12-07T01:35:52.168Z,21.77
2018-12-07T01:38:20.722Z,25.87
2018-12-07T01:40:49.188Z,24.93
2018-12-07T01:43:17.656Z,21.87
2018-12-07T01:45:46.080Z,22.87
2018-12-07T01:48:14.497Z,22.77
2018-12-07T01:50:43.019Z,22.93
2018-12-07T01:53:11.606Z,22.30
2018-12-07T01:55:40.068Z,22.83
2018-12-07T01:58:08.492Z,24.50
2018-12-07T02:00:37.032Z,26.13
2018-12-07T02:03:05.492Z,24.97
2018-12-07T02:05:33.948Z,24.37
2018-12-07T02:08:02.463Z,23.00
2018-12-07T02:10:30.892Z,24.47
2018-12-07T02:12:59.363Z,23.33
2018-12-07T02:15:27.829Z,27.70
2018-12-07T02:17:56.295Z,25.10
2018-12-07T02:20:24.775Z,23.93
2018-12-07T02:22:53.195Z,26.17
2018-12-07T02:25:21.651Z,24.03
2018-12-07T02:27:55.456Z,26.80
2018-12-07T02:30:23.924Z,22.00
2018-12-07T02:32:52.408Z,22.60
2018-12-07T02:35:20.873Z,22.30
2018-12-07T02:37:49.309Z,23.83
2018-12-07T02:40:17.749Z,22.97
2018-12-07T02:42:46.222Z,25.60
2018-12-07T02:45:14.657Z,22.23
2018-12-07T02:47:43.107Z,22.90
2018-12-07T02:50:11.385Z,25.97
2018-12-07T02:52:39.836Z,22.97
2018-12-07T02:55:08.427Z,23.77
2018-12-07T02:57:36.951Z,23.20
2018-12-07T03:00:06.932Z,27.03
2018-12-07T03:02:35.392Z,25.47
2018-12-07T03:05:04.348Z,27.43
2018-12-07T03:07:32.811Z,22.97
2018-12-07T03:10:01.266Z,23.50
2018-12-07T03:12:29.716Z,24.07
2018-12-07T03:14:58.187Z,25.53
2018-12-07T03:17:26.629Z,24.83
2018-12-07T03:19:55.103Z,26.57
2018-12-07T03:22:23.539Z,22.63
2018-12-07T03:24:52.039Z,23.20
2018-12-07T03:27:20.468Z,22.53
2018-12-07T03:29:48.907Z,20.40
2018-12-07T03:32:17.436Z,21.83
2018-12-07T03:34:45.937Z,24.03
2018-12-07T03:37:14.504Z,23.27
2018-12-07T03:39:42.967Z,21.33
2018-12-07T03:42:12.219Z,24.47
2018-12-07T03:44:40.647Z,22.73
2018-12-07T03:47:09.273Z,27.40
2018-12-07T03:49:37.818Z,20.47
2018-12-07T03:52:06.447Z,19.93
2018-12-07T03:54:34.889Z,20.77
2018-12-07T03:57:03.344Z,20.70
2018-12-07T03:59:31.819Z,20.00
2018-12-07T04:02:00.327Z,20.73
2018-12-07T04:04:28.751Z,19.87
2018-12-07T04:06:57.180Z,20.47
2018-12-07T04:09:25.624Z,18.63
2018-12-07T04:11:54.039Z,20.53
2018-12-07T04:14:22.510Z,20.47
2018-12-07T04:16:51.710Z,20.00
2018-12-07T04:19:20.843Z,19.90
2018-12-07T04:21:49.260Z,21.27
2018-12-07T04:24:17.740Z,23.83
2018-12-07T04:26:46.155Z,25.97
2018-12-07T04:29:14.621Z,23.17
2018-12-07T04:31:43.609Z,22.00
2018-12-07T04:34:12.140Z,24.00
2018-12-07T04:36:40.622Z,24.53
2018-12-07T04:39:09.036Z,23.23
2018-12-07T04:41:37.472Z,24.87
2018-12-07T04:44:05.958Z,27.13
2018-12-07T04:46:34.519Z,24.77
2018-12-07T04:49:02.962Z,22.97
2018-12-07T04:51:31.405Z,23.57
2018-12-07T04:53:59.827Z,24.80
2018-12-07T04:56:28.289Z,23.50
2018-12-07T04:58:56.753Z,23.33
2018-12-07T05:01:25.297Z,26.47
2018-12-07T05:03:53.760Z,23.53
2018-12-07T05:06:22.259Z,25.87
2018-12-07T05:08:50.697Z,27.23
2018-12-07T05:11:19.167Z,24.83
2018-12-07T05:13:47.673Z,24.50
2018-12-07T05:16:17.199Z,27.67
2018-12-07T05:18:45.693Z,26.83
2018-12-07T05:21:14.291Z,27.27
2018-12-07T05:23:42.821Z,24.17
2018-12-07T05:26:11.337Z,29.63
2018-12-07T05:28:39.796Z,23.27
2018-12-07T05:31:08.284Z,22.87
2018-12-07T05:33:36.776Z,25.67
2018-12-07T05:36:05.236Z,25.70
2018-12-07T05:38:33.735Z,27.13
2018-12-07T05:41:02.188Z,22.93
2018-12-07T05:43:30.714Z,22.30
2018-12-07T05:45:59.147Z,24.17
2018-12-07T05:48:27.716Z,25.60
2018-12-07T05:50:56.132Z,26.87
2018-12-07T05:53:24.548Z,27.97
2018-12-07T05:55:53.024Z,23.80
2018-12-07T05:58:21.492Z,26.97
2018-12-07T06:00:49.914Z,23.47
2018-12-07T06:03:18.391Z,24.27
2018-12-07T06:05:46.875Z,25.93
2018-12-07T06:08:15.291Z,29.07
2018-12-07T06:10:43.759Z,27.77
2018-12-07T06:13:12.185Z,30.43
2018-12-07T06:15:40.639Z,28.67
2018-12-07T06:18:09.063Z,33.53
2018-12-07T06:20:37.524Z,27.57
2018-12-07T06:23:06.011Z,27.93
2018-12-07T06:25:34.476Z,25.03
2018-12-07T06:28:02.883Z,25.17
2018-12-07T06:30:31.341Z,29.00
2018-12-07T06:32:59.975Z,25.30
2018-12-07T06:35:28.414Z,26.67
2018-12-07T06:37:56.875Z,29.00
2018-12-07T06:40:25.347Z,28.17
2018-12-07T06:42:53.797Z,27.20
2018-12-07T06:45:22.271Z,29.57
2018-12-07T06:47:50.729Z,30.23
2018-12-07T06:50:19.155Z,28.10
2018-12-07T06:52:47.628Z,28.03
2018-12-07T06:55:16.094Z,27.60
2018-12-07T06:57:44.512Z,31.07
2018-12-07T07:00:13.002Z,32.13
2018-12-07T07:02:42.003Z,32.57
2018-12-07T07:05:10.432Z,33.30
2018-12-07T07:07:38.915Z,32.50
2018-12-07T07:10:08.149Z,33.13
2018-12-07T07:12:36.567Z,30.03
2018-12-07T07:15:05.860Z,26.57
2018-12-07T07:17:34.288Z,29.33
2018-12-07T07:20:02.933Z,33.33
2018-12-07T07:22:31.397Z,32.80
2018-12-07T07:24:59.871Z,28.47
2018-12-07T07:27:28.292Z,30.83
2018-12-07T07:29:56.836Z,32.70
2018-12-07T07:32:25.276Z,31.80
2018-12-07T07:34:53.746Z,32.53
2018-12-07T07:37:22.267Z,21.57
2018-12-07T07:39:50.729Z,16.03
2018-12-07T07:42:20.247Z,12.67
2018-12-07T07:44:48.703Z,9.27
2018-12-07T07:47:17.116Z,10.80
2018-12-07T07:49:45.711Z,8.43
2018-12-07T07:52:14.128Z,9.43
2018-12-07T07:54:42.534Z,9.20
2018-12-07T07:57:10.983Z,9.30
2018-12-07T07:59:39.435Z,9.10
2018-12-07T08:02:07.916Z,9.77
2018-12-07T08:04:36.356Z,9.10
2018-12-07T08:07:04.953Z,10.53
2018-12-07T08:09:33.420Z,9.53
2018-12-07T08:12:01.843Z,8.87
2018-12-07T08:14:30.313Z,9.73
2018-12-07T08:16:58.756Z,11.17
2018-12-07T08:19:27.253Z,8.83
2018-12-07T08:21:55.671Z,8.93
2018-12-07T08:24:24.123Z,15.23
2018-12-07T08:26:52.607Z,13.83
2018-12-07T08:29:21.044Z,10.60
2018-12-07T08:31:49.508Z,10.00
2018-12-07T08:34:18.075Z,8.50
2018-12-07T08:36:46.506Z,7.67
2018-12-07T08:39:14.954Z,7.17
2018-12-07T08:41:44.534Z,7.50
2018-12-07T08:44:13.123Z,8.47
2018-12-07T08:46:41.703Z,7.90
2018-12-07T08:49:11.028Z,8.17
2018-12-07T08:51:39.505Z,10.00
2018-12-07T08:54:07.984Z,9.07
2018-12-07T08:56:36.508Z,9.07
2018-12-07T08:59:04.960Z,9.90
2018-12-07T09:01:33.524Z,10.97
2018-12-07T09:04:01.984Z,8.70
2018-12-07T09:06:30.416Z,9.83
2018-12-07T09:08:59.419Z,9.23
2018-12-07T09:11:27.859Z,9.57
2018-12-07T09:13:56.308Z,8.73
2018-12-07T09:16:24.784Z,9.33
2018-12-07T09:18:53.209Z,8.47
2018-12-07T09:21:21.671Z,8.77
2018-12-07T09:23:50.143Z,8.77
2018-12-07T09:26:18.660Z,9.00
2018-12-07T09:28:47.163Z,9.20
2018-12-07T09:31:15.631Z,8.73
2018-12-07T09:33:44.061Z,10.20
2018-12-07T09:36:12.525Z,9.37
2018-12-07T09:38:40.967Z,10.03
2018-12-07T09:41:09.439Z,9.20
2018-12-07T09:43:37.856Z,9.03
2018-12-07T09:46:06.320Z,7.33
2018-12-07T09:48:34.780Z,8.13
2018-12-07T09:51:03.272Z,7.43
2018-12-07T09:53:31.760Z,6.67
2018-12-07T09:56:00.183Z,6.60
2018-12-07T09:58:28.667Z,5.90
2018-12-07T10:00:57.144Z,6.17
2018-12-07T10:03:25.572Z,6.30
2018-12-07T10:05:53.996Z,5.73
2018-12-07T10:08:22.468Z,7.50
2018-12-07T10:10:51.028Z,7.40
2018-12-07T10:13:19.452Z,7.23
2018-12-07T10:15:48.134Z,7.17
2018-12-07T10:18:16.599Z,6.90
2018-12-07T10:20:45.026Z,6.73
2018-12-07T10:23:13.491Z,6.50
2018-12-07T10:25:41.972Z,5.60
2018-12-07T10:28:10.388Z,6.07
2018-12-07T10:30:38.843Z,4.70
2018-12-07T10:33:07.280Z,5.33
2018-12-07T10:35:35.739Z,6.00
2018-12-07T10:38:04.260Z,6.20
2018-12-07T10:40:32.830Z,6.17
2018-12-07T10:43:01.267Z,5.60
2018-12-07T10:45:29.791Z,5.00
2018-12-07T10:47:58.331Z,4.93
2018-12-07T10:50:26.793Z,4.63
2018-12-07T10:52:55.218Z,4.93
2018-12-07T10:55:23.696Z,4.00
2018-12-07T10:57:52.188Z,4.27
2018-12-07T11:00:27.151Z,4.87
2018-12-07T11:03:01.101Z,5.27
2018-12-07T11:05:34.904Z,4.20
2018-12-07T11:08:08.683Z,4.20
2018-12-07T11:10:42.601Z,4.00
2018-12-07T11:13:16.303Z,4.37
2018-12-07T11:15:50.203Z,4.27
2018-12-07T11:18:23.868Z,5.47
2018-12-07T11:20:57.432Z,3.60
2018-12-07T11:23:31.440Z,5.20
2018-12-07T11:26:05.091Z,5.97
2018-12-07T11:28:38.839Z,4.90
2018-12-07T11:32:15.904Z,4.30
2018-12-07T11:34:47.792Z,4.67
2018-12-07T11:37:16.227Z,5.10
2018-12-07T11:39:44.697Z,4.90
2018-12-07T11:42:13.186Z,3.70
2018-12-07T11:44:41.623Z,3.47
2018-12-07T11:47:10.077Z,3.53
2018-12-07T11:49:38.516Z,4.07
2018-12-07T11:52:06.981Z,4.60
2018-12-07T11:54:35.399Z,3.33
2018-12-07T11:57:03.965Z,3.53
2018-12-07T11:59:32.431Z,3.57
2018-12-07T12:02:01.040Z,5.53
2018-12-07T12:04:29.463Z,7.27
2018-12-07T12:06:57.935Z,5.70
2018-12-07T12:09:26.399Z,4.93
2018-12-07T12:11:54.869Z,11.03
2018-12-07T12:14:23.331Z,8.50
2018-12-07T12:16:51.867Z,6.90
2018-12-07T12:19:20.323Z,5.47
2018-12-07T12:21:48.799Z,4.37
2018-12-07T12:24:17.242Z,15.93
2018-12-07T12:26:45.769Z,8.37
2018-12-07T12:29:14.245Z,5.03
2018-12-07T12:31:43.075Z,6.17
2018-12-07T12:34:11.540Z,5.13
2018-12-07T12:36:39.959Z,4.53
2018-12-07T12:39:08.432Z,6.50
2018-12-07T12:41:36.869Z,4.03
2018-12-07T12:44:05.320Z,3.83
2018-12-07T12:46:33.784Z,4.23
2018-12-07T12:49:02.205Z,2.87
2018-12-07T12:51:30.642Z,4.80
2018-12-07T12:53:59.144Z,3.37
2018-12-07T12:56:27.637Z,2.63
2018-12-07T12:58:56.082Z,4.23
2018-12-07T13:01:24.501Z,3.63
2018-12-07T13:03:53.060Z,3.20
2018-12-07T13:06:21.531Z,4.93
2018-12-07T13:08:49.957Z,3.30
2018-12-07T13:11:18.403Z,2.73
2018-12-07T13:13:46.892Z,3.57
2018-12-07T13:16:15.320Z,3.37
2018-12-07T13:18:43.820Z,4.63
2018-12-07T13:21:12.291Z,4.97
2018-12-07T13:23:40.748Z,5.53
2018-12-07T13:26:09.202Z,3.90
2018-12-07T13:28:37.651Z,3.97
2018-12-07T13:31:06.082Z,4.23
2018-12-07T13:33:34.528Z,6.70
2018-12-07T13:36:03.689Z,5.13
2018-12-07T13:38:32.144Z,2.83
2018-12-07T13:41:00.623Z,3.53
2018-12-07T13:43:29.114Z,3.13
2018-12-07T13:45:57.616Z,4.00
2018-12-07T13:48:26.156Z,3.63
2018-12-07T13:50:54.920Z,8.87
2018-12-07T13:53:23.706Z,4.87
2018-12-07T13:55:52.920Z,9.00
2018-12-07T13:58:21.969Z,7.97
2018-12-07T14:00:51.585Z,14.63
2018-12-07T14:03:20.109Z,10.00
2018-12-07T14:05:48.720Z,9.33
2018-12-07T14:08:18.834Z,9.97
2018-12-07T14:10:48.117Z,4.13
2018-12-07T14:13:16.574Z,3.50
2018-12-07T14:15:45.254Z,2.87
2018-12-07T14:18:14.474Z,3.50
2018-12-07T14:20:43.694Z,6.17
2018-12-07T14:23:12.804Z,7.23
2018-12-07T14:25:41.873Z,3.57
2018-12-07T14:28:11.031Z,3.67
2018-12-07T14:30:40.327Z,4.07
2018-12-07T14:33:08.875Z,4.20
2018-12-07T14:35:37.993Z,4.10
2018-12-07T14:38:07.119Z,4.33
2018-12-07T14:40:35.796Z,2.60
2018-12-07T14:43:04.996Z,3.13
2018-12-07T14:45:33.656Z,3.23
2018-12-07T14:48:02.974Z,3.30
2018-12-07T14:50:32.097Z,3.13
2018-12-07T14:53:01.452Z,3.50
2018-12-07T14:55:30.493Z,3.10
2018-12-07T14:57:58.913Z,3.63
2018-12-07T15:00:27.393Z,1.97
2018-12-07T15:02:56.005Z,2.57
2018-12-07T15:05:25.143Z,2.10
2018-12-07T15:07:53.844Z,4.27
2018-12-07T15:10:22.847Z,1.60
2018-12-07T15:12:51.463Z,3.17
2018-12-07T15:15:20.792Z,3.90
2018-12-07T15:17:49.940Z,3.63
2018-12-07T15:20:18.625Z,7.27
2018-12-07T15:22:47.379Z,7.27
2018-12-07T15:25:16.526Z,6.23
2018-12-07T15:27:45.600Z,6.30
2018-12-07T15:30:14.271Z,6.67
2018-12-07T15:32:42.759Z,10.57
2018-12-07T15:35:11.574Z,6.63
2018-12-07T15:37:40.150Z,6.50
2018-12-07T15:40:10.328Z,8.63
2018-12-07T15:42:39.873Z,8.77
2018-12-07T15:45:09.497Z,7.20
2018-12-07T15:47:39.798Z,9.10
2018-12-07T15:50:09.063Z,12.07
2018-12-07T15:52:37.801Z,14.00
2018-12-07T15:55:07.540Z,15.93
2018-12-07T15:57:36.743Z,16.83
2018-12-07T16:00:06.703Z,15.13
2018-12-07T16:02:35.238Z,13.27
2018-12-07T16:05:04.985Z,10.23
2018-12-07T16:07:34.241Z,12.30
2018-12-07T16:10:03.967Z,9.83
2018-12-07T16:12:32.639Z,9.90
2018-12-07T16:15:02.743Z,12.47
2018-12-07T16:17:31.569Z,12.70
2018-12-07T16:20:00.776Z,10.23
2018-12-07T16:22:29.421Z,9.90
2018-12-07T16:24:58.722Z,12.53
2018-12-07T16:27:28.093Z,10.63
2018-12-07T16:29:57.435Z,10.90
2018-12-07T16:32:26.073Z,12.33
2018-12-07T16:34:55.251Z,11.60
2018-12-07T16:37:23.962Z,10.60
2018-12-07T16:39:53.102Z,11.00
2018-12-07T16:42:21.873Z,10.97
2018-12-07T16:44:51.181Z,12.40
2018-12-07T16:47:20.291Z,12.37
2018-12-07T16:49:50.114Z,12.13
2018-12-07T16:52:19.278Z,12.73
2018-12-07T16:54:48.041Z,13.87
2018-12-07T16:57:16.819Z,12.37
2018-12-07T16:59:45.979Z,15.90
2018-12-07T17:02:14.692Z,16.27
2018-12-07T17:04:43.279Z,16.07
2018-12-07T17:07:11.888Z,19.40
2018-12-07T17:09:40.422Z,18.13
2018-12-07T17:12:09.870Z,17.60
2018-12-07T17:14:39.975Z,17.33
2018-12-07T17:17:08.660Z,16.83
2018-12-07T17:19:37.327Z,19.10
2018-12-07T17:22:06.681Z,18.23
2018-12-07T17:24:35.806Z,20.50
2018-12-07T17:27:04.986Z,21.33
2018-12-07T17:29:33.832Z,24.00
2018-12-07T17:32:02.421Z,20.97
2018-12-07T17:34:31.877Z,22.57
2018-12-07T17:37:01.112Z,22.10
2018-12-07T17:39:30.274Z,22.80
2018-12-07T17:41:58.792Z,23.83
2018-12-07T17:44:27.417Z,22.93
2018-12-07T17:46:55.995Z,23.93
2018-12-07T17:49:24.636Z,24.60
2018-12-07T17:51:53.680Z,25.33
2018-12-07T17:54:24.233Z,24.93
2018-12-07T17:56:54.084Z,25.93
2018-12-07T17:59:23.256Z,28.07
2018-12-07T18:01:52.427Z,24.97
2018-12-07T18:04:20.910Z,29.73
2018-12-07T18:06:49.689Z,26.67
2018-12-07T18:09:18.793Z,27.03
2018-12-07T18:11:48.386Z,29.77
2018-12-07T18:14:16.824Z,27.40
2018-12-07T18:16:45.443Z,28.10
2018-12-07T18:19:14.537Z,32.83
2018-12-07T18:21:43.157Z,30.83
2018-12-07T18:24:12.551Z,32.57
2018-12-07T18:26:41.736Z,34.80
2018-12-07T18:29:10.497Z,30.70
2018-12-07T18:31:39.592Z,31.90
2018-12-07T18:34:08.236Z,32.27
2018-12-07T18:36:36.755Z,33.57
2018-12-07T18:39:07.969Z,31.00
2018-12-07T18:41:36.700Z,32.47
2018-12-07T18:44:05.972Z,32.03
2018-12-07T18:46:35.322Z,34.23
2018-12-07T18:49:04.755Z,33.70
2018-12-07T18:51:33.354Z,33.97
2018-12-07T18:54:02.660Z,34.50
2018-12-07T18:56:31.701Z,39.00
2018-12-07T18:59:00.203Z,37.17
2018-12-07T19:01:28.992Z,38.17
2018-12-07T19:03:58.250Z,37.33
2018-12-07T19:06:27.683Z,37.30
2018-12-07T19:08:56.380Z,37.50
2018-12-07T19:11:25.504Z,34.97
2018-12-07T19:13:56.709Z,35.60
2018-12-07T19:16:25.498Z,35.40
2018-12-07T19:18:54.692Z,36.37
2018-12-07T19:21:23.331Z,34.73
2018-12-07T19:23:53.504Z,40.10
2018-12-07T19:26:22.796Z,34.63
2018-12-07T19:28:52.173Z,33.93
2018-12-07T19:31:21.346Z,33.83
2018-12-07T19:33:50.766Z,36.30
2018-12-07T19:36:19.621Z,36.63
2018-12-07T19:38:48.883Z,35.23
2018-12-07T19:41:18.071Z,36.57
2018-12-07T19:43:46.674Z,35.97
2018-12-07T19:46:15.986Z,34.70
2018-12-07T19:48:45.446Z,34.93
2018-12-07T19:51:15.082Z,34.87
2018-12-07T19:53:44.336Z,33.43
2018-12-07T19:56:12.751Z,32.23
2018-12-07T19:58:41.408Z,35.10
2018-12-07T20:01:10.283Z,36.10
2018-12-07T20:03:39.497Z,36.57
2018-12-07T20:06:08.775Z,36.63
2018-12-07T20:08:38.086Z,35.47
2018-12-07T20:11:07.019Z,36.43
2018-12-07T20:13:35.743Z,35.60
2018-12-07T20:16:05.496Z,36.63
2018-12-07T20:18:35.202Z,36.17
2018-12-07T20:21:03.921Z,37.43
2018-12-07T20:23:32.396Z,39.43
2018-12-07T20:26:01.172Z,37.83
2018-12-07T20:28:30.569Z,37.03
2018-12-07T20:31:00.818Z,38.70
2018-12-07T20:33:29.384Z,37.07
2018-12-07T20:35:58.166Z,36.17
2018-12-07T20:38:27.317Z,37.60
2018-12-07T20:40:56.394Z,36.77
2018-12-07T20:43:25.970Z,36.33
2018-12-07T20:45:54.638Z,36.50
2018-12-07T20:48:23.822Z,36.87
2018-12-07T20:50:53.452Z,36.50
2018-12-07T20:53:22.227Z,35.33
2018-12-07T20:55:51.158Z,37.47
2018-12-07T20:58:19.782Z,36.93
2018-12-07T21:00:48.877Z,37.73
2018-12-07T21:03:17.609Z,38.63
2018-12-07T21:08:14.201Z,38.97
2018-12-07T21:11:05.898Z,39.80
2018-12-07T21:14:45.792Z,37.73
2018-12-07T21:17:21.916Z,37.20
2018-12-07T21:19:53.478Z,40.67
2018-12-07T21:22:22.725Z,39.47
2018-12-07T21:24:51.988Z,39.10
2018-12-07T21:27:21.207Z,42.00
2018-12-07T21:31:13.258Z,41.13
2018-12-07T21:33:57.851Z,41.47
2018-12-07T21:36:45.198Z,38.90
2018-12-07T21:39:23.610Z,38.90
2018-12-07T21:41:52.813Z,40.17
2018-12-07T21:44:21.912Z,40.30
2018-12-07T21:46:50.495Z,41.33
2018-12-07T21:49:20.063Z,42.40
2018-12-07T21:52:31.019Z,38.63
2018-12-07T21:54:59.628Z,40.77
2018-12-07T21:57:28.922Z,39.27
2018-12-07T21:59:58.056Z,38.47
2018-12-07T22:02:27.658Z,41.00
2018-12-07T22:04:56.210Z,39.27
2018-12-07T22:07:24.871Z,40.60
2018-12-07T22:09:53.965Z,44.63
2018-12-07T22:12:22.486Z,38.53
2018-12-07T22:14:51.027Z,42.83
2018-12-07T22:17:19.796Z,43.37
2018-12-07T22:19:48.951Z,43.00
2018-12-07T22:22:17.648Z,41.83
2018-12-07T22:24:47.012Z,44.53
2018-12-07T22:27:16.103Z,41.30
2018-12-07T22:29:44.666Z,42.87
2018-12-07T22:32:14.126Z,41.93
2018-12-07T22:34:43.537Z,41.23
2018-12-07T22:37:12.749Z,41.03
2018-12-07T22:39:42.003Z,39.97
2018-12-07T22:42:11.282Z,40.17
2018-12-07T22:44:40.513Z,41.77
2018-12-07T22:47:10.395Z,40.47
2018-12-07T22:49:38.911Z,39.77
2018-12-07T22:52:07.387Z,43.67
2018-12-07T22:54:35.817Z,41.30
2018-12-07T22:57:04.239Z,39.77
2018-12-07T22:59:33.558Z,41.20
2018-12-07T23:02:02.151Z,43.03
2018-12-07T23:04:30.616Z,41.13
2018-12-07T23:06:59.101Z,43.33
2018-12-07T23:09:28.655Z,40.83
2018-12-07T23:11:57.095Z,41.30
2018-12-07T23:14:25.566Z,39.70
2018-12-07T23:16:54.004Z,42.93
2018-12-07T23:19:22.430Z,47.10
2018-12-07T23:21:50.909Z,49.43
2018-12-07T23:24:19.338Z,52.53
2018-12-07T23:26:47.812Z,52.73
2018-12-07T23:29:23.195Z,50.23
2018-12-07T23:31:51.688Z,46.70
2018-12-07T23:34:20.168Z,33.73
2018-12-07T23:36:48.584Z,37.87
2018-12-07T23:39:17.035Z,29.97
2018-12-07T23:41:45.512Z,30.33
2018-12-07T23:44:13.967Z,30.93
2018-12-07T23:46:42.464Z,28.47
2018-12-07T23:49:11.110Z,28.63
2018-12-07T23:51:40.191Z,25.50
2018-12-07T23:54:08.655Z,24.20
2018-12-07T23:56:37.107Z,22.97
2018-12-07T23:59:05.572Z,19.17
